Time;durP1;ratioP1;P1;durP2;ratioP2;P2;SDS_P1;SDS_P2;PMS_P1;PMS_P2;Temp;Humidity;BMP_temperature;BMP_pressure;BME280_temperature;BME280_humidity;BME280_pressure;Samples;Min_cycle;Max_cycle;Signal;HPM_P1;HPM_P2
2022/04/12 05:32:34;;;;;;;9.57;3.95;;;;;;;6.89;65.11;98821.78;5047907;28;20413;-65
2022/04/12 05:34:59;;;;;;;10.15;3.75;;;;;;;6.95;65.52;98822.25;5036028;28;20043;-62
2022/04/12 05:37:25;;;;;;;11.40;3.60;;;;;;;6.85;64.60;98799.69;5021339;28;20021;-62
2022/04/12 05:39:50;;;;;;;8.43;3.58;;;;;;;7.06;64.79;98828.28;5038425;28;20529;-62
2022/04/12 05:42:15;;;;;;;14.60;3.78;;;;;;;7.05;65.17;98826.63;5038606;28;20033;-62
2022/04/12 05:44:41;;;;;;;17.92;4.00;;;;;;;6.95;64.42;98793.81;5016708;28;20033;-63
2022/04/12 05:47:09;;;;;;;12.98;3.88;;;;;;;7.10;64.06;98803.81;5037563;28;20139;-63
2022/04/12 05:49:35;;;;;;;11.65;4.25;;;;;;;7.31;64.35;98842.72;5031803;28;20117;-65
2022/04/12 05:52:00;;;;;;;15.80;3.97;;;;;;;7.37;64.16;98828.47;5036247;28;20116;-66
2022/04/12 05:54:26;;;;;;;10.70;3.92;;;;;;;7.20;64.00;98795.34;5038436;28;20045;-62
2022/04/12 05:56:51;;;;;;;14.85;4.10;;;;;;;7.37;64.71;98815.53;5036259;28;20021;-63
2022/04/12 05:59:17;;;;;;;17.95;4.50;;;;;;;7.59;63.97;98844.94;5016809;28;20072;-64
2022/04/12 06:01:42;;;;;;;19.85;5.10;;;;;;;7.64;64.29;98845.41;5033123;28;20029;-62
2022/04/12 06:04:08;;;;;;;18.85;4.90;;;;;;;7.59;64.32;98835.38;5038165;28;20076;-62
2022/04/12 06:06:34;;;;;;;12.57;4.50;;;;;;;7.59;64.26;98837.16;5034859;28;20140;-64
2022/04/12 06:09:00;;;;;;;13.50;4.78;;;;;;;7.75;64.54;98853.13;5021826;28;20025;-63
2022/04/12 06:11:26;;;;;;;13.20;4.03;;;;;;;7.80;63.73;98847.59;5018051;28;20033;-63
2022/04/12 06:13:52;;;;;;;12.48;4.22;;;;;;;7.82;64.07;98859.47;5038536;28;20033;-62
2022/04/12 06:16:18;;;;;;;11.05;4.22;;;;;;;7.87;63.40;98849.59;5038728;28;20139;-62
2022/04/12 06:18:43;;;;;;;11.50;4.25;;;;;;;7.95;64.02;98854.16;5017042;28;20043;-63
2022/04/12 06:21:08;;;;;;;8.88;3.83;;;;;;;7.99;63.40;98852.13;5022159;28;20025;-62
2022/04/12 06:23:34;;;;;;;8.60;4.07;;;;;;;7.95;63.56;98846.38;5037655;28;20385;-64
2022/04/12 06:25:59;;;;;;;11.30;4.28;;;;;;;8.06;63.94;98848.13;5037066;28;21018;-63
2022/04/12 06:28:25;;;;;;;10.52;3.80;;;;;;;8.06;63.44;98851.53;5039194;28;20820;-63
2022/04/12 06:30:51;;;;;;;12.13;3.88;;;;;;;8.20;63.35;98857.38;5017498;28;20030;-63
2022/04/12 06:33:16;;;;;;;10.88;3.80;;;;;;;8.16;63.26;98849.03;5038719;28;20069;-63
2022/04/12 06:35:42;;;;;;;9.15;3.58;;;;;;;8.15;63.60;98846.56;5019540;28;20061;-63
2022/04/12 06:38:08;;;;;;;10.68;3.80;;;;;;;8.02;64.00;98824.22;5038502;28;20048;-63
2022/04/12 06:40:35;;;;;;;15.15;4.05;;;;;;;7.94;63.73;98805.91;5037180;28;20021;-63
2022/04/12 06:43:00;;;;;;;8.70;3.65;;;;;;;8.24;63.94;98846.63;5008884;28;20025;-64
2022/04/12 06:45:26;;;;;;;10.35;4.20;;;;;;;8.05;63.06;98816.22;5007919;28;20031;-63
2022/04/12 06:47:58;;;;;;;11.02;4.15;;;;;;;8.23;64.30;98847.59;5006935;28;20028;-63
2022/04/12 06:50:25;;;;;;;9.57;4.03;;;;;;;8.22;62.94;98843.34;5025471;28;20036;-63
2022/04/12 06:52:51;;;;;;;7.63;3.30;;;;;;;8.30;61.53;98852.25;5022065;28;20041;-63
2022/04/12 06:55:17;;;;;;;11.68;3.83;;;;;;;8.31;63.03;98853.94;5024468;28;20472;-65
2022/04/12 06:57:43;;;;;;;10.23;3.95;;;;;;;8.16;62.94;98817.94;5007232;28;20045;-64
2022/04/12 07:00:10;;;;;;;8.77;3.72;;;;;;;8.44;63.13;98847.63;5024605;28;20017;-63
2022/04/12 07:02:35;;;;;;;9.20;3.90;;;;;;;8.48;63.03;98849.97;5024973;28;20033;-64
2022/04/12 07:05:02;;;;;;;9.27;4.03;;;;;;;8.42;63.46;98838.34;5006280;28;20068;-66
2022/04/12 07:07:28;;;;;;;10.82;4.13;;;;;;;8.44;62.27;98841.63;5024052;28;20107;-65
2022/04/12 07:09:55;;;;;;;7.00;3.65;;;;;;;8.51;65.58;98857.50;5021386;28;20504;-65
2022/04/12 07:12:20;;;;;;;10.82;4.00;;;;;;;8.44;63.89;98854.59;5007270;28;20072;-63
2022/04/12 07:14:45;;;;;;;7.05;3.70;;;;;;;8.53;63.99;98856.44;5001923;28;20033;-65
2022/04/12 07:17:11;;;;;;;7.72;3.15;;;;;;;8.54;63.27;98855.50;5006498;28;20663;-63
2022/04/12 07:19:36;;;;;;;6.68;3.17;;;;;;;8.50;62.85;98851.50;5023036;28;20033;-63
2022/04/12 07:22:02;;;;;;;9.98;4.03;;;;;;;8.47;62.85;98854.34;5022922;28;20620;-62
2022/04/12 07:24:27;;;;;;;8.52;3.70;;;;;;;8.61;62.13;98860.97;5023624;28;20029;-63
2022/04/12 07:26:52;;;;;;;8.27;3.67;;;;;;;8.56;62.38;98861.38;5022224;28;20041;-63
2022/04/12 07:29:18;;;;;;;11.18;3.65;;;;;;;8.68;61.97;98862.13;5003233;28;20034;-62
2022/04/12 07:31:43;;;;;;;13.20;4.32;;;;;;;8.59;62.16;98840.38;5001075;28;20085;-64
2022/04/12 07:34:09;;;;;;;12.02;3.88;;;;;;;8.68;61.92;98858.72;5023968;28;20563;-62
2022/04/12 07:36:39;;;;;;;9.52;3.88;;;;;;;8.71;62.14;98853.28;5021625;28;20504;-64
2022/04/12 07:39:06;;;;;;;11.55;4.30;;;;;;;8.76;63.66;98854.56;5023760;28;20025;-65
2022/04/12 07:41:31;;;;;;;10.13;3.80;;;;;;;8.42;63.05;98810.66;5023883;28;20029;-64
2022/04/12 07:43:56;;;;;;;11.25;4.20;;;;;;;8.61;62.08;98851.44;5022964;28;20054;-62
2022/04/12 07:46:22;;;;;;;11.25;5.35;;;;;;;8.66;61.79;98859.66;5024658;28;20248;-62
2022/04/12 07:48:47;;;;;;;8.45;3.92;;;;;;;8.69;62.65;98850.81;5003195;28;20030;-62
2022/04/12 07:51:13;;;;;;;7.47;3.88;;;;;;;8.72;62.90;98852.31;5056287;28;20033;-62
2022/04/12 07:53:39;;;;;;;7.82;3.97;;;;;;;8.73;61.38;98844.41;4994619;28;20480;-62
2022/04/12 07:56:04;;;;;;;8.75;4.22;;;;;;;8.59;61.10;98817.03;5037442;28;20564;-64
2022/04/12 07:58:30;;;;;;;8.98;4.00;;;;;;;8.94;61.59;98861.72;5003318;28;20032;-64
2022/04/12 08:00:55;;;;;;;9.13;4.18;;;;;;;8.94;63.19;98859.94;5035775;28;20527;-63
2022/04/12 08:03:21;;;;;;;11.70;4.53;;;;;;;9.01;62.24;98852.50;5024093;28;20580;-62
2022/04/12 08:05:50;;;;;;;13.60;4.57;;;;;;;8.98;61.59;98839.78;5021929;28;20030;-63
2022/04/12 08:08:16;;;;;;;7.68;4.28;;;;;;;9.17;61.17;98854.63;5006607;28;20809;-64
2022/04/12 08:10:42;;;;;;;10.65;4.70;;;;;;;9.26;59.38;98855.63;5005741;28;20037;-64
2022/04/12 08:13:08;;;;;;;8.85;4.25;;;;;;;9.24;61.03;98848.78;5005082;28;20199;-62
2022/04/12 08:15:33;;;;;;;9.57;4.50;;;;;;;9.22;59.87;98849.88;5024278;28;20033;-61
2022/04/12 08:17:58;;;;;;;10.00;4.65;;;;;;;9.17;58.46;98847.66;5022163;28;20030;-63
2022/04/12 08:20:24;;;;;;;8.13;3.67;;;;;;;9.14;60.28;98847.09;5023133;28;20042;-62
2022/04/12 08:22:52;;;;;;;8.82;4.45;;;;;;;8.96;61.85;98852.03;5004210;28;20025;-62
2022/04/12 08:25:18;;;;;;;9.18;4.75;;;;;;;8.90;62.71;98844.78;5024291;28;20029;-64
2022/04/12 08:27:44;;;;;;;12.18;4.85;;;;;;;8.94;61.95;98841.78;5036629;28;20041;-63
2022/04/12 08:30:10;;;;;;;11.55;5.80;;;;;;;8.90;59.52;98844.78;5005269;28;20041;-62
2022/04/12 08:32:37;;;;;;;9.93;4.97;;;;;;;8.97;56.36;98840.75;5001971;28;20026;-63
2022/04/12 08:35:04;;;;;;;9.05;4.45;;;;;;;9.08;55.43;98845.84;5043890;28;20507;-62
2022/04/12 08:37:31;;;;;;;9.90;4.65;;;;;;;9.53;52.99;98805.72;5006632;28;20164;-62
2022/04/12 08:39:57;;;;;;;8.73;4.95;;;;;;;10.79;50.15;98804.91;5021888;28;20034;-61
2022/04/12 08:42:22;;;;;;;10.80;4.45;;;;;;;12.04;48.37;98837.47;5003119;28;20393;-62
2022/04/12 08:44:48;;;;;;;9.82;4.32;;;;;;;12.69;45.68;98829.34;5009147;28;20494;-62
2022/04/12 08:47:18;;;;;;;9.75;4.00;;;;;;;12.45;46.41;98828.22;5019445;28;20025;-63
2022/04/12 08:49:44;;;;;;;8.73;4.10;;;;;;;12.04;45.84;98827.03;5002948;28;20515;-63
2022/04/12 08:52:11;;;;;;;9.60;3.88;;;;;;;11.96;46.37;98827.78;5000545;28;20033;-61
2022/04/12 08:54:37;;;;;;;8.95;3.75;;;;;;;11.98;47.17;98825.03;5022226;28;20105;-62
2022/04/12 08:57:03;;;;;;;13.75;3.92;;;;;;;12.11;46.81;98825.47;5020420;28;20072;-62
2022/04/12 08:59:29;;;;;;;6.95;2.70;;;;;;;12.17;44.05;98821.44;5027230;28;20111;-62
2022/04/12 09:01:55;;;;;;;9.13;2.92;;;;;;;12.27;43.97;98816.97;5006181;28;20135;-63
2022/04/12 09:04:22;;;;;;;8.15;2.90;;;;;;;12.34;43.08;98809.34;5028526;28;20052;-62
2022/04/12 09:06:50;;;;;;;6.93;2.95;;;;;;;12.42;43.05;98812.84;5018882;28;20029;-62
2022/04/12 09:09:18;;;;;;;8.05;2.88;;;;;;;12.55;42.47;98814.25;5021343;28;20033;-64
2022/04/12 09:12:02;;;;;;;8.23;3.42;;;;;;;12.65;42.30;98813.19;5022525;28;20079;-60
2022/04/12 09:14:46;;;;;;;8.23;3.58;;;;;;;12.37;42.41;98756.91;5019589;28;20059;-61
2022/04/12 09:17:19;;;;;;;7.47;2.90;;;;;;;12.82;41.55;98806.28;5021174;28;20025;-61
2022/04/12 09:19:49;;;;;;;6.10;2.83;;;;;;;12.81;41.21;98806.44;5021063;28;20356;-63
2022/04/12 09:22:23;;;;;;;9.13;3.10;;;;;;;12.82;41.53;98798.44;5002745;28;20116;-63
2022/04/12 09:24:53;;;;;;;8.40;2.90;;;;;;;12.75;40.68;98794.00;5021981;28;20030;-62
2022/04/12 09:27:23;;;;;;;6.35;2.78;;;;;;;12.74;41.34;98787.97;5001684;28;20032;-62
2022/04/12 09:29:48;;;;;;;;;;;;;;;12.93;40.43;98791.34;5022522;28;20025;-62
2022/04/12 09:32:15;;;;;;;8.50;2.70;;;;;;;12.99;40.63;98793.31;5020760;28;19917;-60
2022/04/12 09:34:44;;;;;;;5.82;3.28;;;;;;;12.98;41.17;98786.47;5020857;28;20274;-61
2022/04/12 09:37:37;;;;;;;5.85;3.00;;;;;;;13.06;39.96;98794.31;5002656;28;20354;-61
2022/04/12 09:40:14;;;;;;;7.30;2.97;;;;;;;13.15;40.99;98780.34;4996209;28;20049;-61
2022/04/12 09:42:49;;;;;;;8.23;3.53;;;;;;;13.15;39.66;98782.13;5001920;28;20033;-63
2022/04/12 09:45:24;;;;;;;6.88;3.03;;;;;;;12.56;39.49;98685.47;5021006;28;20056;-61
2022/04/12 09:47:52;;;;;;;9.15;3.20;;;;;;;13.20;39.33;98770.25;5020358;28;20044;-62
2022/04/12 09:50:24;;;;;;;8.52;3.08;;;;;;;13.37;40.02;98768.53;5023541;28;20025;-62
2022/04/12 09:52:53;;;;;;;7.00;3.25;;;;;;;13.36;38.82;98766.06;5001445;28;20109;-60
2022/04/12 09:55:39;;;;;;;10.45;3.85;;;;;;;13.12;39.22;98707.53;5022081;28;20030;-60
2022/04/12 09:58:07;;;;;;;9.35;4.13;;;;;;;13.49;39.09;98758.63;5019612;28;20041;-61
2022/04/12 10:00:33;;;;;;;10.07;3.92;;;;;;;13.78;37.83;98757.34;5001217;28;20038;-61
2022/04/12 10:03:03;;;;;;;8.30;4.07;;;;;;;13.81;39.18;98751.81;5020172;28;20521;-62
2022/04/12 10:05:29;;;;;;;8.93;3.85;;;;;;;13.67;38.80;98749.81;5016142;28;20083;-61
2022/04/12 10:07:56;;;;;;;11.82;4.28;;;;;;;13.69;39.35;98740.84;5019648;28;20060;-63
2022/04/12 10:10:23;;;;;;;9.75;3.95;;;;;;;13.89;37.48;98743.97;5016651;28;20404;-62
2022/04/12 10:12:48;;;;;;;8.23;4.15;;;;;;;13.91;38.80;98746.41;5004407;28;20104;-61
2022/04/12 10:15:13;;;;;;;10.35;4.50;;;;;;;13.80;38.38;98745.75;5016547;28;20051;-61
2022/04/12 10:17:39;;;;;;;8.38;3.65;;;;;;;13.67;38.88;98697.56;5018323;28;20044;-62
2022/04/12 10:20:06;;;;;;;8.52;3.70;;;;;;;13.99;38.36;98734.16;5004536;28;20661;-63
2022/04/12 10:22:32;;;;;;;7.30;3.60;;;;;;;14.12;38.01;98735.47;5002857;28;20482;-64
2022/04/12 10:24:58;;;;;;;8.90;4.03;;;;;;;14.18;37.35;98737.41;5020906;28;20037;-64
2022/04/12 10:27:23;;;;;;;12.98;5.97;;;;;;;14.22;37.46;98734.31;5022993;28;20528;-63
2022/04/12 10:30:17;;;;;;;10.70;5.22;;;;;;;14.37;37.21;98729.22;5024030;28;20040;-63
2022/04/12 10:33:06;;;;;;;8.05;4.25;;;;;;;14.26;36.95;98726.97;5021220;28;20091;-62
2022/04/12 10:35:55;;;;;;;7.35;4.25;;;;;;;14.47;37.02;98715.16;5019895;28;20040;-63
2022/04/12 10:38:23;;;;;;;8.85;4.35;;;;;;;14.42;37.24;98711.25;5025189;28;20025;-62
2022/04/12 10:40:51;;;;;;;14.18;4.47;;;;;;;14.43;37.48;98705.00;5004304;28;20045;-63
2022/04/12 10:43:39;;;;;;;9.80;4.60;;;;;;;14.52;37.16;98712.84;5023791;28;20048;-62
2022/04/12 10:46:07;;;;;;;8.90;4.53;;;;;;;14.46;36.70;98700.47;5018193;28;20534;-62
2022/04/12 10:48:33;;;;;;;9.27;4.70;;;;;;;14.55;37.42;98699.44;5001995;28;20029;-63
2022/04/12 10:51:01;;;;;;;9.85;4.97;;;;;;;14.88;36.18;98704.59;5022348;28;20032;-63
2022/04/12 10:53:38;;;;;;;10.73;4.70;;;;;;;14.88;36.53;98702.78;5019084;28;20033;-62
2022/04/12 10:56:05;;;;;;;10.43;4.55;;;;;;;14.95;36.39;98697.72;5035334;28;20500;-62
2022/04/12 10:58:33;;;;;;;9.23;4.38;;;;;;;14.93;36.08;98687.41;4999506;28;20115;-61
2022/04/12 11:00:59;;;;;;;9.55;4.68;;;;;;;14.87;36.30;98690.69;5005436;28;20116;-63
2022/04/12 11:03:40;;;;;;;11.85;4.70;;;;;;;14.97;36.51;98687.88;5012224;28;20136;-64
2022/04/12 11:06:12;;;;;;;8.52;4.60;;;;;;;14.79;35.82;98659.31;5031373;28;20099;-63
2022/04/12 11:08:38;;;;;;;9.82;4.35;;;;;;;14.84;36.81;98656.19;5022771;28;20059;-62
2022/04/12 11:11:04;;;;;;;9.15;4.28;;;;;;;14.76;37.22;98636.91;5016769;28;20444;-62
2022/04/12 11:13:34;;;;;;;12.80;4.72;;;;;;;15.04;36.46;98678.34;5022554;28;20731;-63
2022/04/12 11:16:00;;;;;;;9.50;4.70;;;;;;;15.26;35.37;98687.22;5004964;28;20034;-62
2022/04/12 11:19:03;;;;;;;9.52;4.05;;;;;;;15.23;37.05;98690.19;5019643;28;20033;-62
2022/04/12 11:21:51;;;;;;;9.15;4.57;;;;;;;15.58;35.21;98678.31;5015169;28;20021;-63
2022/04/12 11:24:17;;;;;;;9.35;4.97;;;;;;;15.49;35.48;98678.56;5019453;28;20447;-62
2022/04/12 11:26:45;;;;;;;9.38;4.80;;;;;;;15.21;36.12;98636.34;5022798;28;20029;-63
2022/04/12 11:29:12;;;;;;;9.05;5.03;;;;;;;15.44;36.10;98671.25;5019954;28;20025;-63
2022/04/12 11:31:45;;;;;;;9.70;4.90;;;;;;;15.72;34.12;98676.75;5021334;28;20044;-63
2022/04/12 11:34:11;;;;;;;11.07;5.00;;;;;;;15.75;35.03;98672.97;5003884;28;20033;-61
2022/04/12 11:36:45;;;;;;;11.43;5.28;;;;;;;15.77;35.86;98671.03;5017637;28;20025;-63
2022/04/12 11:39:16;;;;;;;9.80;5.43;;;;;;;15.77;35.90;98681.50;5017367;28;20026;-60
2022/04/12 11:41:41;;;;;;;10.65;5.38;;;;;;;15.75;35.54;98667.72;5001519;28;20030;-60
2022/04/12 11:44:07;;;;;;;10.05;4.97;;;;;;;15.43;35.65;98629.47;5019520;28;20036;-64
2022/04/12 11:46:33;;;;;;;8.82;5.35;;;;;;;15.68;35.28;98669.41;5018905;28;20083;-62
2022/04/12 11:49:11;;;;;;;10.85;5.45;;;;;;;15.57;35.83;98633.97;5021199;28;20557;-64
2022/04/12 11:51:42;;;;;;;11.20;5.93;;;;;;;15.87;35.96;98666.34;5018036;28;20040;-62
2022/04/12 11:54:34;;;;;;;11.05;5.40;;;;;;;15.99;35.70;98664.09;5004898;28;20067;-63
2022/04/12 11:57:23;;;;;;;13.30;6.03;;;;;;;16.02;35.41;98662.94;5001665;28;20095;-63
2022/04/12 12:00:00;;;;;;;15.73;6.60;;;;;;;15.99;35.67;98668.50;5021319;28;20396;-61
2022/04/12 12:02:27;;;;;;;11.57;6.43;;;;;;;15.99;34.38;98658.88;5018276;28;20644;-61
2022/04/12 12:04:57;;;;;;;10.68;5.80;;;;;;;15.85;34.89;98639.47;5021049;28;20025;-61
2022/04/12 12:07:24;;;;;;;10.27;6.72;;;;;;;15.87;34.94;98636.69;5019620;28;20384;-63
2022/04/12 12:09:56;;;;;;;12.75;6.80;;;;;;;16.02;35.10;98655.06;5019479;28;20052;-60
2022/04/12 12:12:48;;;;;;;10.63;6.72;;;;;;;16.23;35.24;98667.50;5021215;28;20079;-64
2022/04/12 12:15:25;;;;;;;10.93;6.18;;;;;;;16.24;35.44;98663.84;5019240;28;20033;-63
2022/04/12 12:17:55;;;;;;;12.70;6.80;;;;;;;16.24;34.63;98655.97;5021257;28;20108;-62
2022/04/12 12:20:22;;;;;;;12.18;6.80;;;;;;;16.31;34.49;98649.03;5020134;28;20028;-62
2022/04/12 12:22:52;;;;;;;10.13;6.55;;;;;;;16.31;34.74;98662.94;5019746;28;20030;-61
2022/04/12 12:25:22;;;;;;;;;;;;;;;16.48;34.86;98668.84;5020238;28;20175;-62
2022/04/12 12:27:53;;;;;;;14.00;7.18;;;;;;;16.54;34.46;98662.06;5049107;28;19917;-64
2022/04/12 12:30:21;;;;;;;13.07;6.78;;;;;;;16.18;34.35;98630.47;5020627;28;20561;-62
2022/04/12 12:32:50;;;;;;;11.20;6.57;;;;;;;16.38;34.25;98657.81;5018868;28;20032;-62
2022/04/12 12:35:16;;;;;;;;;;;;;;;16.68;33.16;98657.78;5021136;28;20345;-64
2022/04/12 12:37:43;;;;;;;11.45;6.75;;;;;;;16.59;33.18;98653.63;5049485;28;19913;-63
2022/04/12 12:40:23;;;;;;;13.25;6.47;;;;;;;16.57;34.13;98650.38;5019659;28;20029;-63
2022/04/12 12:42:50;;;;;;;11.02;6.25;;;;;;;16.65;34.51;98658.16;5017127;28;20033;-63
2022/04/12 12:45:18;;;;;;;11.90;7.05;;;;;;;16.64;33.82;98654.72;5018248;28;20055;-64
2022/04/12 12:47:46;;;;;;;11.57;6.57;;;;;;;16.42;34.13;98618.91;5001733;28;21758;-61
2022/04/12 12:50:14;;;;;;;13.57;6.93;;;;;;;16.82;33.80;98651.69;5015949;28;20037;-63
2022/04/12 12:52:41;;;;;;;14.45;6.90;;;;;;;16.96;33.10;98652.72;5017846;28;20104;-61
2022/04/12 12:55:08;;;;;;;12.57;6.85;;;;;;;16.82;33.17;98638.56;5016340;28;20761;-61
2022/04/12 12:57:43;;;;;;;17.75;7.05;;;;;;;16.63;33.40;98613.72;5021809;28;20036;-62
2022/04/12 13:00:10;;;;;;;11.38;6.85;;;;;;;16.86;33.43;98645.09;5011116;28;20039;-61
2022/04/12 13:02:37;;;;;;;11.93;7.40;;;;;;;16.79;32.99;98604.00;5016500;28;20207;-62
2022/04/12 13:05:05;;;;;;;11.07;6.88;;;;;;;17.05;32.56;98625.34;5019315;28;20396;-62
2022/04/12 13:07:32;;;;;;;11.57;7.18;;;;;;;17.20;32.58;98627.09;5013830;28;20037;-59
2022/04/12 13:10:15;;;;;;;11.52;6.97;;;;;;;17.20;32.89;98625.28;5021057;28;20102;-62
2022/04/12 13:12:42;;;;;;;11.52;6.68;;;;;;;17.25;32.25;98624.72;5034857;28;20032;-60
2022/04/12 13:15:09;;;;;;;11.13;7.07;;;;;;;17.36;32.81;98621.59;5015131;28;20025;-58
2022/04/12 13:17:35;;;;;;;12.25;6.88;;;;;;;17.56;32.21;98615.69;4997152;28;20515;-60
2022/04/12 13:20:03;;;;;;;12.70;6.95;;;;;;;17.60;32.12;98628.28;5016711;28;20033;-59
2022/04/12 13:22:28;;;;;;;12.52;7.10;;;;;;;17.63;32.12;98620.03;5024809;28;20056;-58
2022/04/12 13:24:54;;;;;;;11.45;7.13;;;;;;;17.34;31.16;98571.03;4998636;28;20657;-58
2022/04/12 13:27:20;;;;;;;12.43;7.30;;;;;;;17.57;30.92;98619.97;5033099;28;20049;-60
2022/04/12 13:29:45;;;;;;;13.13;7.30;;;;;;;17.60;31.80;98620.38;5002152;28;20037;-60
2022/04/12 13:32:11;;;;;;;13.30;7.30;;;;;;;17.59;32.10;98608.22;5000569;28;20084;-63
2022/04/12 13:34:37;;;;;;;11.18;7.55;;;;;;;17.58;31.49;98585.59;5020654;28;20107;-59
2022/04/12 13:37:03;;;;;;;13.10;7.38;;;;;;;17.69;31.63;98618.44;5001755;28;20087;-60
2022/04/12 13:39:29;;;;;;;12.07;7.97;;;;;;;17.74;30.65;98605.53;5020028;28;20423;-63
2022/04/12 13:41:54;;;;;;;10.55;7.15;;;;;;;17.67;31.74;98615.19;5020060;28;20029;-61
2022/04/12 13:44:20;;;;;;;12.85;6.82;;;;;;;17.70;31.49;98603.47;5002038;28;20048;-62
2022/04/12 13:46:45;;;;;;;12.40;7.10;;;;;;;17.81;32.01;98595.84;5002835;28;20037;-60
2022/04/12 13:49:10;;;;;;;11.70;7.22;;;;;;;17.87;31.83;98599.59;5018692;28;20040;-62
2022/04/12 13:51:36;;;;;;;13.65;8.00;;;;;;;17.90;31.13;98601.03;5019975;28;20100;-61
2022/04/12 13:54:01;;;;;;;12.88;8.23;;;;;;;17.70;31.21;98593.75;5022645;28;20060;-60
2022/04/12 13:56:27;;;;;;;12.88;7.82;;;;;;;17.80;31.52;98598.69;5003785;28;20420;-60
2022/04/12 13:58:53;;;;;;;12.88;7.32;;;;;;;17.84;31.31;98594.69;5021786;28;20408;-62
2022/04/12 14:01:18;;;;;;;13.88;7.88;;;;;;;17.89;31.38;98584.44;5022355;28;20124;-62
2022/04/12 14:03:44;;;;;;;11.57;7.13;;;;;;;18.07;31.11;98589.19;5023584;28;20179;-60
2022/04/12 14:06:10;;;;;;;14.20;8.05;;;;;;;18.09;30.90;98581.94;5021534;28;20048;-61
2022/04/12 14:08:35;;;;;;;13.90;7.40;;;;;;;17.98;30.98;98583.28;5004109;28;20041;-63
2022/04/12 14:11:01;;;;;;;14.30;7.32;;;;;;;18.05;30.89;98576.25;5018782;28;20431;-63
2022/04/12 14:13:26;;;;;;;12.20;7.20;;;;;;;17.88;31.78;98547.81;5016320;28;20080;-61
2022/04/12 14:15:53;;;;;;;12.90;6.38;;;;;;;18.17;31.89;98560.69;5002211;28;20733;-61
2022/04/12 14:18:20;;;;;;;12.63;7.07;;;;;;;18.23;31.02;98573.09;5022815;28;20044;-61
2022/04/12 14:20:46;;;;;;;11.55;7.63;;;;;;;18.00;30.20;98541.81;5003879;28;20038;-61
2022/04/12 14:23:12;;;;;;;12.70;7.70;;;;;;;18.17;30.36;98570.41;5006394;28;20033;-62
2022/04/12 14:25:38;;;;;;;12.45;8.00;;;;;;;17.90;30.62;98528.19;5024953;28;20029;-61
2022/04/12 14:28:04;;;;;;;12.35;7.28;;;;;;;18.14;30.69;98570.81;5027246;28;20057;-62
2022/04/12 14:30:30;;;;;;;14.30;7.50;;;;;;;18.15;30.87;98577.69;5023008;28;20040;-62
2022/04/12 14:32:55;;;;;;;13.98;7.70;;;;;;;18.22;30.66;98568.84;5010663;28;20041;-62
2022/04/12 14:35:21;;;;;;;13.77;7.80;;;;;;;18.29;30.05;98565.41;5007054;28;20041;-61
2022/04/12 14:37:46;;;;;;;14.13;6.93;;;;;;;18.21;30.73;98559.31;5055841;28;20059;-62
2022/04/12 14:40:12;;;;;;;12.25;7.53;;;;;;;18.11;30.93;98558.84;5006590;28;20168;-62
2022/04/12 14:42:38;;;;;;;11.55;7.30;;;;;;;18.01;30.85;98555.75;5024271;28;20040;-62
2022/04/12 14:45:04;;;;;;;11.98;7.63;;;;;;;17.76;30.54;98518.56;5021504;28;20572;-61
2022/04/12 14:47:31;;;;;;;12.40;7.60;;;;;;;18.05;30.04;98562.25;5022826;28;20413;-63
2022/04/12 14:49:56;;;;;;;10.88;7.03;;;;;;;18.08;30.76;98561.06;4999811;28;20030;-63
2022/04/12 14:52:23;;;;;;;11.68;6.70;;;;;;;17.94;30.21;98518.09;5038822;28;20557;-61
2022/04/12 14:54:48;;;;;;;13.88;7.40;;;;;;;18.17;30.37;98560.69;5022847;28;20753;-61
2022/04/12 14:57:14;;;;;;;12.52;6.80;;;;;;;18.15;30.86;98565.34;5024336;28;20033;-61
2022/04/12 14:59:39;;;;;;;15.98;6.53;;;;;;;18.11;30.68;98561.50;5009379;28;20601;-61
2022/04/12 15:02:05;;;;;;;12.93;7.63;;;;;;;18.17;30.06;98562.53;5023397;28;20033;-63
2022/04/12 15:04:31;;;;;;;11.25;7.30;;;;;;;18.26;30.17;98564.00;4967497;28;20499;-64
2022/04/12 15:06:56;;;;;;;14.23;6.78;;;;;;;18.20;30.12;98559.53;5008744;28;20034;-64
2022/04/12 15:09:22;;;;;;;10.27;6.80;;;;;;;18.21;30.40;98551.41;5024338;28;20033;-61
2022/04/12 15:11:47;;;;;;;11.05;6.93;;;;;;;18.11;30.28;98552.75;5021815;28;20048;-62
2022/04/12 15:14:12;;;;;;;11.32;7.43;;;;;;;18.08;30.21;98547.91;5023105;28;20037;-61
2022/04/12 15:16:38;;;;;;;15.18;7.40;;;;;;;17.92;30.55;98517.47;5022280;28;20030;-62
2022/04/12 15:19:03;;;;;;;11.60;7.50;;;;;;;18.15;30.42;98557.47;5021977;28;20038;-62
2022/04/12 15:21:29;;;;;;;14.40;7.20;;;;;;;18.12;30.00;98547.31;5021359;28;20036;-62
2022/04/12 15:23:55;;;;;;;12.68;7.35;;;;;;;18.27;29.86;98564.78;5009379;28;20739;-62
2022/04/12 15:26:20;;;;;;;13.02;7.07;;;;;;;18.18;30.24;98572.03;5036289;28;20518;-62
2022/04/12 15:28:46;;;;;;;12.18;6.95;;;;;;;18.15;29.98;98557.47;5000511;28;20120;-62
2022/04/12 15:31:11;;;;;;;10.40;7.43;;;;;;;18.10;30.24;98544.06;5050779;28;20116;-62
2022/04/12 15:33:36;;;;;;;10.00;6.88;;;;;;;18.14;30.22;98561.09;5018470;28;20148;-62
2022/04/12 15:36:03;;;;;;;10.65;7.65;;;;;;;18.09;30.02;98566.13;4998193;28;20480;-62
2022/04/12 15:38:31;;;;;;;11.45;7.70;;;;;;;18.10;29.24;98561.69;5021094;28;20056;-64
2022/04/12 15:40:57;;;;;;;11.38;7.93;;;;;;;18.02;30.49;98557.41;5018751;28;20033;-62
2022/04/12 15:43:23;;;;;;;11.85;7.63;;;;;;;17.77;30.20;98525.44;5018802;28;20600;-61
2022/04/12 15:45:48;;;;;;;11.98;7.30;;;;;;;17.98;30.36;98569.28;5021729;28;20391;-62
2022/04/12 15:48:14;;;;;;;13.70;7.65;;;;;;;17.92;30.44;98554.28;5021453;28;20324;-61
2022/04/12 15:50:39;;;;;;;11.40;7.30;;;;;;;17.89;29.87;98544.97;5021947;28;20527;-62
2022/04/12 15:53:06;;;;;;;13.40;7.35;;;;;;;17.88;30.06;98558.31;4996116;28;20345;-62
2022/04/12 15:55:31;;;;;;;11.15;7.70;;;;;;;17.64;30.57;98521.72;5003894;28;20106;-62
2022/04/12 15:58:07;;;;;;;13.57;7.85;;;;;;;17.81;30.49;98572.19;5001344;28;20041;-60
2022/04/12 16:00:32;;;;;;;11.40;7.80;;;;;;;17.52;30.41;98530.31;5023812;28;20057;-62
2022/04/12 16:02:58;;;;;;;11.43;7.13;;;;;;;17.83;30.05;98561.47;5019533;28;20064;-63
2022/04/12 16:05:23;;;;;;;11.82;7.43;;;;;;;17.84;30.14;98560.50;5023860;28;20413;-61
2022/04/12 16:07:50;;;;;;;11.10;7.22;;;;;;;17.90;29.83;98564.19;5021836;28;20468;-61
2022/04/12 16:10:16;;;;;;;11.68;7.15;;;;;;;17.83;30.15;98572.84;5004236;28;20030;-61
2022/04/12 16:12:41;;;;;;;13.13;7.53;;;;;;;17.76;30.23;98565.88;5025352;28;20091;-60
2022/04/12 16:15:07;;;;;;;12.93;8.00;;;;;;;17.58;30.47;98556.69;5023377;28;20506;-64
2022/04/12 16:17:32;;;;;;;11.25;7.20;;;;;;;17.27;30.76;98525.50;5022866;28;20110;-61
2022/04/12 16:19:58;;;;;;;11.35;6.40;;;;;;;17.24;31.31;98531.13;5003642;28;20109;-64
2022/04/12 16:22:23;;;;;;;12.48;7.38;;;;;;;17.28;30.89;98572.59;5019941;28;20040;-61
2022/04/12 16:24:50;;;;;;;11.73;7.60;;;;;;;17.16;30.65;98565.41;5023383;28;20112;-61
2022/04/12 16:27:16;;;;;;;12.25;7.78;;;;;;;17.21;30.97;98578.78;5020495;28;20176;-61
2022/04/12 16:29:42;;;;;;;10.75;6.43;;;;;;;17.17;30.82;98577.56;5020011;28;20396;-61
2022/04/12 16:32:07;;;;;;;10.43;6.57;;;;;;;17.03;30.67;98568.72;5015127;28;20036;-63
2022/04/12 16:34:33;;;;;;;10.32;7.40;;;;;;;17.00;31.16;98569.13;5021656;28;20508;-63
2022/04/12 16:36:58;;;;;;;11.70;6.95;;;;;;;16.56;31.41;98518.34;5014135;28;20026;-61
2022/04/12 16:39:24;;;;;;;11.35;7.03;;;;;;;16.90;31.55;98579.91;5009240;28;20304;-61
2022/04/12 16:41:49;;;;;;;13.10;7.15;;;;;;;16.87;31.74;98578.47;5025195;28;20794;-62
2022/04/12 16:44:14;;;;;;;12.30;7.80;;;;;;;16.78;31.74;98569.06;5005741;28;20558;-61
2022/04/12 16:46:40;;;;;;;11.25;7.25;;;;;;;16.79;31.75;98578.53;5032552;28;20507;-61
2022/04/12 16:49:06;;;;;;;11.63;6.97;;;;;;;16.72;31.74;98572.44;5003282;28;20094;-64
2022/04/12 16:51:32;;;;;;;9.80;6.65;;;;;;;16.77;32.04;98579.72;4974358;28;20095;-65
2022/04/12 16:53:58;;;;;;;14.00;7.95;;;;;;;16.69;32.08;98575.41;5008716;28;20039;-61
2022/04/12 16:56:24;;;;;;;12.90;7.70;;;;;;;16.44;32.28;98535.56;5008101;28;20524;-62
2022/04/12 16:58:49;;;;;;;10.00;7.07;;;;;;;16.66;32.34;98587.09;4999767;28;20041;-61
